Red Lake, Canada
Current Conditions -  °F | °C
As of 10:00 AM on Sunday 25 Jan 2015 (Local Time) from CYRL Reporting Station
Broken Clouds Broken Clouds  
Wind Chill: -12°   Ceiling: 10000
Heat Index:   Visibility: 15mi
Dew Point: -6°   Wind: 6mph
Humidity: 78%   Direction: 130°SE
Pressure: 30.02"   Gusts: NA
Location:  51.09°N, 93.97°W
Report Text: CYRL 251600Z 13005KT 15SM FEW060 BKN100 M18/M21 A3002 RMK SC1AC6 SLP210
Loading
Personal Weather Stations






























Interactive Weather Map New forecast layout! Learn more

10-Day Weather Forecast

Advertisements
Track Severe Weather on mobile